sensor_id;sensor_type;location;lat;lon;timestamp;pressure;altitude;pressure_sealevel;temperature;humidity
6851;BME280;3464;42.728;23.296;2023-07-08T00:01:15;95497.09;;;34.79;38.50
6851;BME280;3464;42.728;23.296;2023-07-08T00:03:41;95487.33;;;35.98;36.93
6851;BME280;3464;42.728;23.296;2023-07-08T00:06:11;95488.90;;;34.63;38.84
6851;BME280;3464;42.728;23.296;2023-07-08T00:08:37;95478.12;;;35.13;38.24
6851;BME280;3464;42.728;23.296;2023-07-08T00:11:08;95480.80;;;34.66;38.76
6851;BME280;3464;42.728;23.296;2023-07-08T00:13:30;95480.68;;;34.77;38.76
6851;BME280;3464;42.728;23.296;2023-07-08T00:15:57;95476.88;;;34.76;38.81
6851;BME280;3464;42.728;23.296;2023-07-08T00:18:23;95474.64;;;34.77;38.68
6851;BME280;3464;42.728;23.296;2023-07-08T00:20:50;95474.17;;;34.30;39.20
6851;BME280;3464;42.728;23.296;2023-07-08T00:23:17;95475.95;;;34.67;38.88
6851;BME280;3464;42.728;23.296;2023-07-08T00:25:50;95469.93;;;35.17;38.12
6851;BME280;3464;42.728;23.296;2023-07-08T00:28:19;95475.31;;;34.95;37.91
6851;BME280;3464;42.728;23.296;2023-07-08T00:30:44;95465.42;;;35.08;37.98
6851;BME280;3464;42.728;23.296;2023-07-08T00:33:10;95458.33;;;35.10;37.83
6851;BME280;3464;42.728;23.296;2023-07-08T00:35:39;95462.65;;;34.95;38.09
6851;BME280;3464;42.728;23.296;2023-07-08T00:38:15;95461.73;;;34.64;38.69
6851;BME280;3464;42.728;23.296;2023-07-08T00:40:51;95447.94;;;35.09;38.03
6851;BME280;3464;42.728;23.296;2023-07-08T00:43:17;95447.91;;;35.04;37.95
6851;BME280;3464;42.728;23.296;2023-07-08T00:45:46;95447.62;;;35.38;37.53
6851;BME280;3464;42.728;23.296;2023-07-08T00:50:53;95445.56;;;39.95;31.49
6851;BME280;3464;42.728;23.296;2023-07-08T00:53:26;95453.40;;;37.38;34.33
6851;BME280;3464;42.728;23.296;2023-07-08T00:55:54;95439.66;;;38.08;33.74
6851;BME280;3464;42.728;23.296;2023-07-08T00:58:20;95441.77;;;36.95;34.70
6851;BME280;3464;42.728;23.296;2023-07-08T01:00:46;95444.25;;;37.34;33.87
6851;BME280;3464;42.728;23.296;2023-07-08T01:03:13;95434.47;;;36.22;35.51
6851;BME280;3464;42.728;23.296;2023-07-08T01:05:39;95430.45;;;37.22;34.32
6851;BME280;3464;42.728;23.296;2023-07-08T01:08:06;95429.98;;;37.95;33.16
6851;BME280;3464;42.728;23.296;2023-07-08T01:10:34;95436.77;;;37.52;33.61
6851;BME280;3464;42.728;23.296;2023-07-08T01:12:59;95436.72;;;34.19;38.03
6851;BME280;3464;42.728;23.296;2023-07-08T01:15:27;95431.52;;;34.29;38.31
6851;BME280;3464;42.728;23.296;2023-07-08T01:17:52;95432.02;;;33.75;38.84
6851;BME280;3464;42.728;23.296;2023-07-08T01:20:19;95436.02;;;34.38;37.88
6851;BME280;3464;42.728;23.296;2023-07-08T01:22:45;95429.77;;;36.25;35.68
6851;BME280;3464;42.728;23.296;2023-07-08T01:25:13;95427.19;;;35.72;36.37
6851;BME280;3464;42.728;23.296;2023-07-08T01:27:41;95427.25;;;35.81;36.11
6851;BME280;3464;42.728;23.296;2023-07-08T01:30:07;95423.05;;;35.69;36.43
6851;BME280;3464;42.728;23.296;2023-07-08T01:32:34;95418.69;;;35.39;36.77
6851;BME280;3464;42.728;23.296;2023-07-08T01:35:01;95424.52;;;36.02;35.67
6851;BME280;3464;42.728;23.296;2023-07-08T01:37:33;95422.84;;;35.21;37.03
6851;BME280;3464;42.728;23.296;2023-07-08T01:39:57;95421.28;;;35.79;36.17
6851;BME280;3464;42.728;23.296;2023-07-08T01:42:24;95422.32;;;35.12;37.04
6851;BME280;3464;42.728;23.296;2023-07-08T01:44:50;95423.72;;;34.34;38.18
6851;BME280;3464;42.728;23.296;2023-07-08T01:47:19;95419.47;;;34.74;37.72
6851;BME280;3464;42.728;23.296;2023-07-08T01:49:44;95424.73;;;35.80;36.34
6851;BME280;3464;42.728;23.296;2023-07-08T01:52:11;95422.88;;;35.61;36.25
6851;BME280;3464;42.728;23.296;2023-07-08T01:54:37;95426.19;;;34.98;36.98
6851;BME280;3464;42.728;23.296;2023-07-08T01:57:04;95417.34;;;35.50;36.49
6851;BME280;3464;42.728;23.296;2023-07-08T01:59:32;95411.95;;;35.91;35.75
6851;BME280;3464;42.728;23.296;2023-07-08T02:01:58;95417.24;;;35.81;36.06
6851;BME280;3464;42.728;23.296;2023-07-08T02:04:25;95412.84;;;35.46;36.84
6851;BME280;3464;42.728;23.296;2023-07-08T02:06:52;95422.98;;;35.20;36.50
6851;BME280;3464;42.728;23.296;2023-07-08T02:09:18;95423.44;;;36.57;34.94
6851;BME280;3464;42.728;23.296;2023-07-08T02:11:45;95432.44;;;36.01;35.86
6851;BME280;3464;42.728;23.296;2023-07-08T02:14:12;95424.86;;;35.08;36.98
6851;BME280;3464;42.728;23.296;2023-07-08T02:16:38;95424.34;;;35.64;36.24
6851;BME280;3464;42.728;23.296;2023-07-08T02:19:05;95437.55;;;36.17;35.63
6851;BME280;3464;42.728;23.296;2023-07-08T02:21:31;95431.56;;;36.06;35.70
6851;BME280;3464;42.728;23.296;2023-07-08T02:23:58;95427.64;;;35.42;36.59
6851;BME280;3464;42.728;23.296;2023-07-08T02:26:24;95433.47;;;34.69;37.53
6851;BME280;3464;42.728;23.296;2023-07-08T02:28:51;95434.30;;;34.48;37.85
6851;BME280;3464;42.728;23.296;2023-07-08T02:31:18;95434.09;;;35.08;36.79
6851;BME280;3464;42.728;23.296;2023-07-08T02:33:44;95441.27;;;35.56;36.29
6851;BME280;3464;42.728;23.296;2023-07-08T02:36:11;95454.69;;;34.81;37.09
6851;BME280;3464;42.728;23.296;2023-07-08T02:38:37;95447.18;;;34.03;38.46
6851;BME280;3464;42.728;23.296;2023-07-08T02:41:04;95460.09;;;33.34;39.77
6851;BME280;3464;42.728;23.296;2023-07-08T02:43:31;95464.81;;;32.84;40.69
6851;BME280;3464;42.728;23.296;2023-07-08T02:45:57;95457.38;;;34.43;38.23
6851;BME280;3464;42.728;23.296;2023-07-08T02:48:24;95463.63;;;34.20;38.25
6851;BME280;3464;42.728;23.296;2023-07-08T02:50:51;95468.61;;;34.71;37.62
6851;BME280;3464;42.728;23.296;2023-07-08T02:53:17;95476.50;;;33.41;39.19
6851;BME280;3464;42.728;23.296;2023-07-08T02:55:44;95482.06;;;32.92;39.93
6851;BME280;3464;42.728;23.296;2023-07-08T02:58:10;95483.72;;;32.99;41.00
6851;BME280;3464;42.728;23.296;2023-07-08T03:00:37;95477.87;;;34.49;38.35
6851;BME280;3464;42.728;23.296;2023-07-08T03:03:03;95473.23;;;34.25;38.35
6851;BME280;3464;42.728;23.296;2023-07-08T03:05:31;95474.63;;;33.92;38.70
6851;BME280;3464;42.728;23.296;2023-07-08T03:07:57;95465.27;;;34.27;38.30
6851;BME280;3464;42.728;23.296;2023-07-08T03:10:24;95464.80;;;33.68;38.61
6851;BME280;3464;42.728;23.296;2023-07-08T03:12:51;95458.87;;;33.99;38.60
6851;BME280;3464;42.728;23.296;2023-07-08T03:15:18;95470.20;;;34.88;37.45
6851;BME280;3464;42.728;23.296;2023-07-08T03:17:45;95463.36;;;34.50;37.72
6851;BME280;3464;42.728;23.296;2023-07-08T03:20:12;95466.22;;;35.04;36.74
6851;BME280;3464;42.728;23.296;2023-07-08T03:22:38;95470.92;;;34.95;37.11
6851;BME280;3464;42.728;23.296;2023-07-08T03:25:05;95468.05;;;34.09;38.32
6851;BME280;3464;42.728;23.296;2023-07-08T03:27:32;95471.30;;;35.26;36.73
6851;BME280;3464;42.728;23.296;2023-07-08T03:29:59;95469.45;;;34.29;37.42
6851;BME280;3464;42.728;23.296;2023-07-08T03:32:25;95467.77;;;34.70;37.32
6851;BME280;3464;42.728;23.296;2023-07-08T03:34:52;95464.05;;;34.68;37.63
6851;BME280;3464;42.728;23.296;2023-07-08T03:37:18;95460.45;;;35.41;36.76
6851;BME280;3464;42.728;23.296;2023-07-08T03:39:45;95462.94;;;36.21;35.72
6851;BME280;3464;42.728;23.296;2023-07-08T03:42:11;95462.44;;;37.17;34.21
6851;BME280;3464;42.728;23.296;2023-07-08T03:44:38;95466.28;;;36.94;34.25
6851;BME280;3464;42.728;23.296;2023-07-08T03:47:05;95452.57;;;37.66;33.31
6851;BME280;3464;42.728;23.296;2023-07-08T03:49:31;95456.08;;;38.72;32.02
6851;BME280;3464;42.728;23.296;2023-07-08T03:51:58;95446.88;;;39.15;31.36
6851;BME280;3464;42.728;23.296;2023-07-08T03:54:24;95458.34;;;37.83;32.90
6851;BME280;3464;42.728;23.296;2023-07-08T03:56:51;95455.48;;;39.00;31.57
6851;BME280;3464;42.728;23.296;2023-07-08T03:59:17;95451.91;;;39.22;31.30
6851;BME280;3464;42.728;23.296;2023-07-08T04:01:44;95434.80;;;40.34;30.02
6851;BME280;3464;42.728;23.296;2023-07-08T04:04:12;95435.97;;;41.43;28.82
6851;BME280;3464;42.728;23.296;2023-07-08T04:06:38;95438.09;;;41.33;28.53
6851;BME280;3464;42.728;23.296;2023-07-08T04:09:04;95445.22;;;41.16;28.77
6851;BME280;3464;42.728;23.296;2023-07-08T04:11:31;95446.69;;;42.35;27.80
6851;BME280;3464;42.728;23.296;2023-07-08T04:13:59;95454.00;;;42.97;27.17
6851;BME280;3464;42.728;23.296;2023-07-08T04:16:27;95450.77;;;43.31;26.56
6851;BME280;3464;42.728;23.296;2023-07-08T04:18:52;95462.11;;;44.87;25.46
6851;BME280;3464;42.728;23.296;2023-07-08T04:21:21;95456.98;;;43.93;25.87
6851;BME280;3464;42.728;23.296;2023-07-08T04:23:47;95455.02;;;43.55;25.86
6851;BME280;3464;42.728;23.296;2023-07-08T04:26:14;95457.84;;;45.24;25.03
6851;BME280;3464;42.728;23.296;2023-07-08T04:28:41;95447.51;;;46.37;23.75
6851;BME280;3464;42.728;23.296;2023-07-08T04:31:08;95451.05;;;47.68;22.77
6851;BME280;3464;42.728;23.296;2023-07-08T04:33:35;95458.59;;;47.16;23.06
6851;BME280;3464;42.728;23.296;2023-07-08T04:36:02;95465.70;;;46.24;23.49
6851;BME280;3464;42.728;23.296;2023-07-08T04:38:28;95464.75;;;46.94;23.19
6851;BME280;3464;42.728;23.296;2023-07-08T04:40:55;95468.64;;;47.63;22.46
6851;BME280;3464;42.728;23.296;2023-07-08T04:43:21;95470.18;;;47.49;22.55
6851;BME280;3464;42.728;23.296;2023-07-08T04:45:48;95469.21;;;44.80;24.47
6851;BME280;3464;42.728;23.296;2023-07-08T04:48:14;95470.58;;;42.46;26.79
6851;BME280;3464;42.728;23.296;2023-07-08T04:50:43;95467.56;;;41.96;27.59
6851;BME280;3464;42.728;23.296;2023-07-08T04:53:10;95471.80;;;42.39;27.47
6851;BME280;3464;42.728;23.296;2023-07-08T04:55:38;95472.77;;;44.90;25.12
6851;BME280;3464;42.728;23.296;2023-07-08T04:58:04;95473.83;;;45.03;24.57
6851;BME280;3464;42.728;23.296;2023-07-08T05:00:32;95479.20;;;45.99;23.64
6851;BME280;3464;42.728;23.296;2023-07-08T05:02:57;95480.42;;;44.07;25.55
6851;BME280;3464;42.728;23.296;2023-07-08T05:05:24;95487.16;;;45.44;24.34
6851;BME280;3464;42.728;23.296;2023-07-08T05:07:50;95486.13;;;44.58;24.72
6851;BME280;3464;42.728;23.296;2023-07-08T05:10:17;95483.13;;;44.61;24.88
6851;BME280;3464;42.728;23.296;2023-07-08T05:12:44;95481.94;;;45.47;24.00
6851;BME280;3464;42.728;23.296;2023-07-08T05:15:10;95488.34;;;45.56;23.85
6851;BME280;3464;42.728;23.296;2023-07-08T05:17:37;95494.00;;;45.43;23.89
6851;BME280;3464;42.728;23.296;2023-07-08T05:20:05;95491.61;;;47.45;22.51
6851;BME280;3464;42.728;23.296;2023-07-08T05:22:31;95483.69;;;48.90;21.35
6851;BME280;3464;42.728;23.296;2023-07-08T05:24:58;95487.45;;;47.81;21.72
6851;BME280;3464;42.728;23.296;2023-07-08T05:27:24;95488.93;;;48.75;21.34
6851;BME280;3464;42.728;23.296;2023-07-08T05:29:51;95498.20;;;46.53;22.68
6851;BME280;3464;42.728;23.296;2023-07-08T05:32:17;95491.23;;;47.86;21.88
6851;BME280;3464;42.728;23.296;2023-07-08T05:34:44;95497.91;;;47.25;22.28
6851;BME280;3464;42.728;23.296;2023-07-08T05:37:12;95501.56;;;49.73;20.41
6851;BME280;3464;42.728;23.296;2023-07-08T05:39:38;95495.14;;;49.86;20.42
6851;BME280;3464;42.728;23.296;2023-07-08T05:42:05;95497.88;;;49.89;20.32
6851;BME280;3464;42.728;23.296;2023-07-08T05:44:31;95498.42;;;51.13;19.35
6851;BME280;3464;42.728;23.296;2023-07-08T05:46:58;95508.75;;;49.14;20.66
6851;BME280;3464;42.728;23.296;2023-07-08T05:49:24;95510.40;;;43.54;24.80
6851;BME280;3464;42.728;23.296;2023-07-08T05:51:51;95510.55;;;43.93;24.88
6851;BME280;3464;42.728;23.296;2023-07-08T05:54:18;95512.78;;;44.75;23.94
6851;BME280;3464;42.728;23.296;2023-07-08T05:56:44;95523.31;;;44.97;23.64
6851;BME280;3464;42.728;23.296;2023-07-08T05:59:11;95520.18;;;43.86;24.84
6851;BME280;3464;42.728;23.296;2023-07-08T06:01:37;95511.45;;;41.46;27.03
6851;BME280;3464;42.728;23.296;2023-07-08T06:04:04;95526.06;;;40.65;27.50
6851;BME280;3464;42.728;23.296;2023-07-08T06:06:31;95518.01;;;41.03;27.79
6851;BME280;3464;42.728;23.296;2023-07-08T06:08:57;95515.94;;;39.52;29.20
6851;BME280;3464;42.728;23.296;2023-07-08T06:11:24;95521.64;;;40.73;28.11
6851;BME280;3464;42.728;23.296;2023-07-08T06:13:51;95518.41;;;40.38;28.22
6851;BME280;3464;42.728;23.296;2023-07-08T06:16:17;95522.13;;;39.82;28.99
6851;BME280;3464;42.728;23.296;2023-07-08T06:18:45;95522.29;;;40.18;28.53
6851;BME280;3464;42.728;23.296;2023-07-08T06:21:11;95520.09;;;39.55;29.11
6851;BME280;3464;42.728;23.296;2023-07-08T06:23:38;95536.66;;;38.69;30.29
6851;BME280;3464;42.728;23.296;2023-07-08T06:26:04;95527.65;;;37.86;31.21
6851;BME280;3464;42.728;23.296;2023-07-08T06:28:30;95543.03;;;38.22;30.69
6851;BME280;3464;42.728;23.296;2023-07-08T06:30:57;95543.59;;;37.43;31.49
6851;BME280;3464;42.728;23.296;2023-07-08T06:33:24;95540.04;;;38.17;30.79
6851;BME280;3464;42.728;23.296;2023-07-08T06:35:50;95533.36;;;39.24;29.45
6851;BME280;3464;42.728;23.296;2023-07-08T06:38:17;95535.43;;;37.74;30.49
6851;BME280;3464;42.728;23.296;2023-07-08T06:40:43;95534.53;;;39.89;28.98
6851;BME280;3464;42.728;23.296;2023-07-08T06:43:11;95529.11;;;38.79;29.57
6851;BME280;3464;42.728;23.296;2023-07-08T06:45:37;95522.83;;;39.79;28.98
6851;BME280;3464;42.728;23.296;2023-07-08T06:48:04;95519.72;;;40.17;27.81
6851;BME280;3464;42.728;23.296;2023-07-08T06:50:31;95519.78;;;40.25;27.67
6851;BME280;3464;42.728;23.296;2023-07-08T06:52:57;95532.30;;;41.37;27.03
6851;BME280;3464;42.728;23.296;2023-07-08T06:55:25;95524.19;;;42.36;25.80
6851;BME280;3464;42.728;23.296;2023-07-08T07:00:26;95527.69;;;44.30;23.80
6851;BME280;3464;42.728;23.296;2023-07-08T07:02:56;95540.59;;;38.78;28.77
6851;BME280;3464;42.728;23.296;2023-07-08T07:05:23;95540.75;;;38.85;28.86
6851;BME280;3464;42.728;23.296;2023-07-08T07:07:51;95542.27;;;39.74;28.39
6851;BME280;3464;42.728;23.296;2023-07-08T07:10:19;95540.95;;;40.82;27.31
6851;BME280;3464;42.728;23.296;2023-07-08T07:12:46;95549.87;;;39.81;27.96
6851;BME280;3464;42.728;23.296;2023-07-08T07:15:12;95556.67;;;40.38;27.63
6851;BME280;3464;42.728;23.296;2023-07-08T07:17:39;95546.89;;;39.07;28.79
6851;BME280;3464;42.728;23.296;2023-07-08T07:20:07;95554.56;;;37.47;30.85
6851;BME280;3464;42.728;23.296;2023-07-08T07:22:34;95559.92;;;36.70;31.75
6851;BME280;3464;42.728;23.296;2023-07-08T07:25:01;95572.63;;;38.56;29.92
6851;BME280;3464;42.728;23.296;2023-07-08T07:27:27;95568.62;;;39.83;28.73
6851;BME280;3464;42.728;23.296;2023-07-08T07:29:54;95574.34;;;38.78;29.58
6851;BME280;3464;42.728;23.296;2023-07-08T07:32:22;95575.65;;;38.61;29.67
6851;BME280;3464;42.728;23.296;2023-07-08T07:34:48;95574.02;;;39.21;29.28
6851;BME280;3464;42.728;23.296;2023-07-08T07:37:14;95574.47;;;39.17;29.36
6851;BME280;3464;42.728;23.296;2023-07-08T07:39:41;95577.48;;;38.91;29.79
6851;BME280;3464;42.728;23.296;2023-07-08T07:42:07;95585.52;;;39.03;29.56
6851;BME280;3464;42.728;23.296;2023-07-08T07:44:33;95583.10;;;39.05;29.04
6851;BME280;3464;42.728;23.296;2023-07-08T07:47:01;95578.06;;;39.16;29.41
6851;BME280;3464;42.728;23.296;2023-07-08T07:49:30;95585.72;;;41.72;27.40
6851;BME280;3464;42.728;23.296;2023-07-08T07:51:57;95581.72;;;42.19;26.29
6851;BME280;3464;42.728;23.296;2023-07-08T07:54:23;95570.27;;;43.44;25.01
6851;BME280;3464;42.728;23.296;2023-07-08T07:56:52;95576.31;;;43.08;24.74
6851;BME280;3464;42.728;23.296;2023-07-08T07:59:20;95579.31;;;44.20;24.32
6851;BME280;3464;42.728;23.296;2023-07-08T08:01:47;95571.83;;;44.48;23.80
6851;BME280;3464;42.728;23.296;2023-07-08T08:04:15;95574.95;;;41.89;25.73
6851;BME280;3464;42.728;23.296;2023-07-08T08:06:42;95562.41;;;43.02;25.15
6851;BME280;3464;42.728;23.296;2023-07-08T08:09:08;95570.97;;;40.69;27.29
6851;BME280;3464;42.728;23.296;2023-07-08T08:11:35;95568.27;;;39.56;28.23
6851;BME280;3464;42.728;23.296;2023-07-08T08:14:02;95566.41;;;39.74;28.35
6851;BME280;3464;42.728;23.296;2023-07-08T08:16:29;95562.58;;;41.06;27.23
6851;BME280;3464;42.728;23.296;2023-07-08T08:18:55;95564.91;;;40.64;27.13
6851;BME280;3464;42.728;23.296;2023-07-08T08:21:22;95572.84;;;38.85;28.95
6851;BME280;3464;42.728;23.296;2023-07-08T08:23:48;95573.26;;;37.72;30.03
6851;BME280;3464;42.728;23.296;2023-07-08T08:26:15;95570.51;;;38.64;29.91
6851;BME280;3464;42.728;23.296;2023-07-08T08:28:42;95559.11;;;39.55;28.48
6851;BME280;3464;42.728;23.296;2023-07-08T08:31:08;95565.92;;;39.62;28.92
6851;BME280;3464;42.728;23.296;2023-07-08T08:33:35;95569.92;;;36.81;31.60
6851;BME280;3464;42.728;23.296;2023-07-08T08:36:01;95563.63;;;39.33;29.55
6851;BME280;3464;42.728;23.296;2023-07-08T08:38:28;95560.07;;;38.67;29.47
6851;BME280;3464;42.728;23.296;2023-07-08T08:40:54;95560.61;;;40.17;28.52
6851;BME280;3464;42.728;23.296;2023-07-08T08:43:23;95553.67;;;39.40;29.09
6851;BME280;3464;42.728;23.296;2023-07-08T08:45:58;95547.43;;;40.30;28.71
6851;BME280;3464;42.728;23.296;2023-07-08T08:48:22;95552.25;;;39.92;28.74
6851;BME280;3464;42.728;23.296;2023-07-08T08:50:52;95549.81;;;40.32;28.09
6851;BME280;3464;42.728;23.296;2023-07-08T08:53:18;95552.84;;;40.61;27.54
6851;BME280;3464;42.728;23.296;2023-07-08T08:55:46;95548.20;;;40.76;28.03
6851;BME280;3464;42.728;23.296;2023-07-08T09:00:55;95567.33;;;41.59;26.73
6851;BME280;3464;42.728;23.296;2023-07-08T09:03:28;95560.77;;;42.59;25.77
6851;BME280;3464;42.728;23.296;2023-07-08T09:05:48;95564.13;;;39.23;28.82
6851;BME280;3464;42.728;23.296;2023-07-08T09:08:23;95554.11;;;41.31;27.07
6851;BME280;3464;42.728;23.296;2023-07-08T09:10:52;95549.21;;;40.91;27.21
6851;BME280;3464;42.728;23.296;2023-07-08T09:16:09;95548.05;;;39.65;28.52
6851;BME280;3464;42.728;23.296;2023-07-08T09:18:38;95559.36;;;40.91;27.54
6851;BME280;3464;42.728;23.296;2023-07-08T09:21:05;95555.10;;;38.91;29.30
6851;BME280;3464;42.728;23.296;2023-07-08T09:23:30;95546.97;;;40.83;27.95
6851;BME280;3464;42.728;23.296;2023-07-08T09:26:07;95544.37;;;39.10;29.49
6851;BME280;3464;42.728;23.296;2023-07-08T09:28:38;95543.25;;;40.52;27.91
6851;BME280;3464;42.728;23.296;2023-07-08T09:31:05;95542.36;;;39.86;28.27
6851;BME280;3464;42.728;23.296;2023-07-08T09:33:31;95541.50;;;40.02;28.18
6851;BME280;3464;42.728;23.296;2023-07-08T09:35:57;95541.64;;;39.11;29.82
6851;BME280;3464;42.728;23.296;2023-07-08T09:38:24;95536.40;;;37.77;30.29
6851;BME280;3464;42.728;23.296;2023-07-08T09:40:52;95532.92;;;38.36;30.03
6851;BME280;3464;42.728;23.296;2023-07-08T09:43:23;95525.20;;;38.65;29.89
6851;BME280;3464;42.728;23.296;2023-07-08T09:45:47;95514.92;;;38.93;29.41
6851;BME280;3464;42.728;23.296;2023-07-08T09:48:19;95521.98;;;38.93;29.31
6851;BME280;3464;42.728;23.296;2023-07-08T09:50:47;95515.05;;;38.39;29.76
6851;BME280;3464;42.728;23.296;2023-07-08T09:53:13;95509.86;;;38.61;29.86
6851;BME280;3464;42.728;23.296;2023-07-08T09:55:39;95517.85;;;38.90;30.05
6851;BME280;3464;42.728;23.296;2023-07-08T09:58:08;95508.81;;;38.54;30.53
6851;BME280;3464;42.728;23.296;2023-07-08T10:00:37;95512.67;;;38.94;30.12
6851;BME280;3464;42.728;23.296;2023-07-08T10:03:04;95511.02;;;38.80;29.47
6851;BME280;3464;42.728;23.296;2023-07-08T10:05:34;95518.80;;;39.16;29.20
6851;BME280;3464;42.728;23.296;2023-07-08T10:08:00;95511.91;;;39.70;29.10
6851;BME280;3464;42.728;23.296;2023-07-08T10:10:31;95505.84;;;39.73;29.24
6851;BME280;3464;42.728;23.296;2023-07-08T10:12:59;95510.16;;;39.95;28.69
6851;BME280;3464;42.728;23.296;2023-07-08T10:15:32;95506.03;;;39.89;28.86
6851;BME280;3464;42.728;23.296;2023-07-08T10:18:01;95505.63;;;39.80;28.75
6851;BME280;3464;42.728;23.296;2023-07-08T10:20:29;95505.72;;;39.02;29.34
6851;BME280;3464;42.728;23.296;2023-07-08T10:23:02;95505.11;;;39.76;29.13
6851;BME280;3464;42.728;23.296;2023-07-08T10:25:29;95495.13;;;40.74;27.85
6851;BME280;3464;42.728;23.296;2023-07-08T10:31:00;95483.05;;;42.19;26.46
6851;BME280;3464;42.728;23.296;2023-07-08T10:34:02;95479.15;;;42.21;26.71
6851;BME280;3464;42.728;23.296;2023-07-08T10:36:22;95480.66;;;41.54;26.87
6851;BME280;3464;42.728;23.296;2023-07-08T10:41:40;95478.96;;;40.93;26.88
6851;BME280;3464;42.728;23.296;2023-07-08T10:44:06;95476.72;;;40.53;27.26
6851;BME280;3464;42.728;23.296;2023-07-08T10:49:31;95480.30;;;40.40;27.80
6851;BME280;3464;42.728;23.296;2023-07-08T10:55:05;95480.26;;;41.49;26.43
6851;BME280;3464;42.728;23.296;2023-07-08T10:57:43;95462.62;;;40.94;26.22
6851;BME280;3464;42.728;23.296;2023-07-08T11:00:26;95455.75;;;41.83;26.25
6851;BME280;3464;42.728;23.296;2023-07-08T11:03:03;95473.19;;;42.12;25.56
6851;BME280;3464;42.728;23.296;2023-07-08T11:05:43;95464.96;;;41.79;26.17
6851;BME280;3464;42.728;23.296;2023-07-08T11:10:51;95459.49;;;42.57;25.90
6851;BME280;3464;42.728;23.296;2023-07-08T11:13:18;95459.38;;;40.43;27.16
6851;BME280;3464;42.728;23.296;2023-07-08T11:15:54;95458.64;;;40.42;26.76
6851;BME280;3464;42.728;23.296;2023-07-08T11:18:29;95450.11;;;40.68;26.55
6851;BME280;3464;42.728;23.296;2023-07-08T11:21:06;95449.25;;;40.87;26.75
6851;BME280;3464;42.728;23.296;2023-07-08T11:23:40;95449.91;;;41.25;26.14
6851;BME280;3464;42.728;23.296;2023-07-08T11:26:15;95437.30;;;40.52;26.91
6851;BME280;3464;42.728;23.296;2023-07-08T11:28:36;95440.38;;;40.84;26.49
6851;BME280;3464;42.728;23.296;2023-07-08T11:31:03;95431.14;;;41.36;26.29
6851;BME280;3464;42.728;23.296;2023-07-08T11:33:29;95440.23;;;41.05;26.11
6851;BME280;3464;42.728;23.296;2023-07-08T11:35:56;95438.77;;;40.58;26.93
6851;BME280;3464;42.728;23.296;2023-07-08T11:38:23;95435.94;;;41.59;26.38
6851;BME280;3464;42.728;23.296;2023-07-08T11:40:55;95437.02;;;42.00;25.92
6851;BME280;3464;42.728;23.296;2023-07-08T11:43:20;95447.29;;;42.64;25.20
6851;BME280;3464;42.728;23.296;2023-07-08T11:45:48;95433.56;;;41.96;25.73
6851;BME280;3464;42.728;23.296;2023-07-08T11:48:18;95446.19;;;40.47;27.79
6851;BME280;3464;42.728;23.296;2023-07-08T11:50:44;95441.44;;;40.70;26.82
6851;BME280;3464;42.728;23.296;2023-07-08T11:53:11;95452.59;;;40.81;26.43
6851;BME280;3464;42.728;23.296;2023-07-08T11:55:43;95439.08;;;41.63;26.82
6851;BME280;3464;42.728;23.296;2023-07-08T11:58:08;95439.94;;;42.62;25.86
6851;BME280;3464;42.728;23.296;2023-07-08T12:00:34;95439.28;;;41.45;25.34
6851;BME280;3464;42.728;23.296;2023-07-08T12:03:04;95436.00;;;42.36;25.13
6851;BME280;3464;42.728;23.296;2023-07-08T12:05:34;95442.98;;;41.71;25.62
6851;BME280;3464;42.728;23.296;2023-07-08T12:08:01;95442.06;;;41.60;25.29
6851;BME280;3464;42.728;23.296;2023-07-08T12:10:32;95452.09;;;42.64;24.77
6851;BME280;3464;42.728;23.296;2023-07-08T12:12:59;95450.03;;;42.97;24.21
6851;BME280;3464;42.728;23.296;2023-07-08T12:15:29;95448.63;;;41.72;24.68
6851;BME280;3464;42.728;23.296;2023-07-08T12:18:09;95436.88;;;42.78;24.34
6851;BME280;3464;42.728;23.296;2023-07-08T12:20:34;95447.16;;;41.85;24.98
6851;BME280;3464;42.728;23.296;2023-07-08T12:23:02;95443.66;;;40.74;25.90
6851;BME280;3464;42.728;23.296;2023-07-08T12:25:31;95445.62;;;41.04;25.72
6851;BME280;3464;42.728;23.296;2023-07-08T12:27:58;95451.34;;;41.44;25.49
6851;BME280;3464;42.728;23.296;2023-07-08T12:30:25;95440.16;;;40.13;26.86
6851;BME280;3464;42.728;23.296;2023-07-08T12:32:52;95432.88;;;41.82;25.35
6851;BME280;3464;42.728;23.296;2023-07-08T12:35:23;95439.73;;;41.26;25.87
6851;BME280;3464;42.728;23.296;2023-07-08T12:37:51;95425.66;;;42.07;25.03
6851;BME280;3464;42.728;23.296;2023-07-08T12:40:20;95427.20;;;42.02;24.87
6851;BME280;3464;42.728;23.296;2023-07-08T12:42:45;95418.84;;;43.21;24.20
6851;BME280;3464;42.728;23.296;2023-07-08T12:45:15;95418.98;;;42.68;24.48
6851;BME280;3464;42.728;23.296;2023-07-08T12:47:40;95427.87;;;40.61;26.42
6851;BME280;3464;42.728;23.296;2023-07-08T12:50:08;95420.73;;;41.34;25.63
6851;BME280;3464;42.728;23.296;2023-07-08T12:52:34;95421.11;;;41.03;26.06
6851;BME280;3464;42.728;23.296;2023-07-08T12:55:02;95416.51;;;40.85;25.91
6851;BME280;3464;42.728;23.296;2023-07-08T12:57:28;95413.37;;;40.41;26.69
6851;BME280;3464;42.728;23.296;2023-07-08T12:59:55;95409.88;;;40.29;26.43
6851;BME280;3464;42.728;23.296;2023-07-08T13:02:21;95414.53;;;40.67;26.36
6851;BME280;3464;42.728;23.296;2023-07-08T13:04:56;95417.14;;;40.35;26.83
6851;BME280;3464;42.728;23.296;2023-07-08T13:07:28;95423.48;;;41.05;26.13
6851;BME280;3464;42.728;23.296;2023-07-08T13:09:51;95434.63;;;41.28;26.26
6851;BME280;3464;42.728;23.296;2023-07-08T13:12:19;95443.89;;;40.15;27.07
6851;BME280;3464;42.728;23.296;2023-07-08T13:14:45;95431.06;;;39.53;27.40
6851;BME280;3464;42.728;23.296;2023-07-08T13:17:13;95426.61;;;40.25;27.30
6851;BME280;3464;42.728;23.296;2023-07-08T13:19:39;95434.15;;;40.44;26.65
6851;BME280;3464;42.728;23.296;2023-07-08T13:22:06;95426.55;;;40.08;27.31
6851;BME280;3464;42.728;23.296;2023-07-08T13:24:33;95428.54;;;40.51;26.60
6851;BME280;3464;42.728;23.296;2023-07-08T13:26:59;95428.52;;;41.20;25.90
6851;BME280;3464;42.728;23.296;2023-07-08T13:29:25;95424.03;;;40.77;26.70
6851;BME280;3464;42.728;23.296;2023-07-08T13:31:55;95422.63;;;40.73;26.58
6851;BME280;3464;42.728;23.296;2023-07-08T13:34:20;95420.05;;;40.65;26.78
6851;BME280;3464;42.728;23.296;2023-07-08T13:36:48;95405.31;;;41.54;25.90